sensor_id;sensor_type;location;lat;lon;timestamp;P1;durP1;ratioP1;P2;durP2;ratioP2
8007;SDS011;4049;49.468;11.200;2022-09-09T00:00:17;2.50;;;1.60;;
8007;SDS011;4049;49.468;11.200;2022-09-09T00:02:47;3.10;;;1.70;;
8007;SDS011;4049;49.468;11.200;2022-09-09T00:05:21;1.60;;;1.50;;
8007;SDS011;4049;49.468;11.200;2022-09-09T00:07:56;2.67;;;1.70;;
8007;SDS011;4049;49.468;11.200;2022-09-09T00:10:27;2.30;;;1.90;;
8007;SDS011;4049;49.468;11.200;2022-09-09T00:12:57;3.73;;;1.80;;
8007;SDS011;4049;49.468;11.200;2022-09-09T00:15:33;1.70;;;1.60;;
8007;SDS011;4049;49.468;11.200;2022-09-09T00:18:07;2.30;;;1.40;;
8007;SDS011;4049;49.468;11.200;2022-09-09T00:20:44;1.77;;;1.60;;
8007;SDS011;4049;49.468;11.200;2022-09-09T00:23:19;2.23;;;1.80;;
8007;SDS011;4049;49.468;11.200;2022-09-09T00:25:52;2.07;;;1.73;;
8007;SDS011;4049;49.468;11.200;2022-09-09T00:28:26;1.87;;;1.70;;
8007;SDS011;4049;49.468;11.200;2022-09-09T00:30:57;3.00;;;1.50;;
8007;SDS011;4049;49.468;11.200;2022-09-09T00:33:33;1.97;;;1.60;;
8007;SDS011;4049;49.468;11.200;2022-09-09T00:36:00;1.97;;;1.77;;
8007;SDS011;4049;49.468;11.200;2022-09-09T00:38:31;2.10;;;1.80;;
8007;SDS011;4049;49.468;11.200;2022-09-09T00:41:03;1.50;;;1.40;;
8007;SDS011;4049;49.468;11.200;2022-09-09T00:43:37;3.73;;;2.10;;
8007;SDS011;4049;49.468;11.200;2022-09-09T00:46:10;3.90;;;1.97;;
8007;SDS011;4049;49.468;11.200;2022-09-09T00:48:53;2.90;;;1.97;;
8007;SDS011;4049;49.468;11.200;2022-09-09T00:51:29;2.63;;;2.13;;
8007;SDS011;4049;49.468;11.200;2022-09-09T00:54:14;4.00;;;2.00;;
8007;SDS011;4049;49.468;11.200;2022-09-09T00:56:57;1.90;;;1.70;;
8007;SDS011;4049;49.468;11.200;2022-09-09T00:59:32;2.33;;;1.90;;
8007;SDS011;4049;49.468;11.200;2022-09-09T01:02:09;3.37;;;2.13;;
8007;SDS011;4049;49.468;11.200;2022-09-09T01:04:47;3.30;;;2.00;;
8007;SDS011;4049;49.468;11.200;2022-09-09T01:07:15;2.63;;;1.73;;
8007;SDS011;4049;49.468;11.200;2022-09-09T01:09:56;2.90;;;1.90;;
8007;SDS011;4049;49.468;11.200;2022-09-09T01:12:34;2.30;;;1.70;;
8007;SDS011;4049;49.468;11.200;2022-09-09T01:15:10;3.33;;;1.90;;
8007;SDS011;4049;49.468;11.200;2022-09-09T01:17:46;2.13;;;1.83;;
8007;SDS011;4049;49.468;11.200;2022-09-09T01:20:20;2.33;;;2.13;;
8007;SDS011;4049;49.468;11.200;2022-09-09T01:23:02;2.63;;;2.20;;
8007;SDS011;4049;49.468;11.200;2022-09-09T01:28:48;2.20;;;2.00;;
8007;SDS011;4049;49.468;11.200;2022-09-09T01:31:18;2.27;;;2.00;;
8007;SDS011;4049;49.468;11.200;2022-09-09T01:33:47;2.63;;;1.90;;
8007;SDS011;4049;49.468;11.200;2022-09-09T01:36:17;3.13;;;2.43;;
8007;SDS011;4049;49.468;11.200;2022-09-09T01:38:48;2.40;;;2.10;;
8007;SDS011;4049;49.468;11.200;2022-09-09T01:41:15;2.23;;;1.87;;
8007;SDS011;4049;49.468;11.200;2022-09-09T01:43:43;2.63;;;1.90;;
8007;SDS011;4049;49.468;11.200;2022-09-09T01:46:10;4.93;;;2.20;;
8007;SDS011;4049;49.468;11.200;2022-09-09T01:48:38;2.63;;;2.00;;
8007;SDS011;4049;49.468;11.200;2022-09-09T01:51:07;3.23;;;2.10;;
8007;SDS011;4049;49.468;11.200;2022-09-09T01:53:35;3.40;;;1.90;;
8007;SDS011;4049;49.468;11.200;2022-09-09T01:56:05;3.20;;;2.00;;
8007;SDS011;4049;49.468;11.200;2022-09-09T01:58:43;2.70;;;1.90;;
8007;SDS011;4049;49.468;11.200;2022-09-09T02:01:21;3.00;;;2.30;;
8007;SDS011;4049;49.468;11.200;2022-09-09T02:03:58;1.90;;;1.80;;
8007;SDS011;4049;49.468;11.200;2022-09-09T02:06:35;3.97;;;2.07;;
8007;SDS011;4049;49.468;11.200;2022-09-09T02:09:04;3.23;;;2.20;;
8007;SDS011;4049;49.468;11.200;2022-09-09T02:11:32;4.57;;;2.53;;
8007;SDS011;4049;49.468;11.200;2022-09-09T02:14:03;4.20;;;2.50;;
8007;SDS011;4049;49.468;11.200;2022-09-09T02:16:34;3.53;;;2.60;;
8007;SDS011;4049;49.468;11.200;2022-09-09T02:19:06;5.20;;;2.67;;
8007;SDS011;4049;49.468;11.200;2022-09-09T02:21:38;3.77;;;2.27;;
8007;SDS011;4049;49.468;11.200;2022-09-09T02:24:07;2.53;;;1.90;;
8007;SDS011;4049;49.468;11.200;2022-09-09T02:26:36;3.07;;;2.57;;
8007;SDS011;4049;49.468;11.200;2022-09-09T02:29:08;2.33;;;2.10;;
8007;SDS011;4049;49.468;11.200;2022-09-09T02:31:38;4.07;;;2.03;;
8007;SDS011;4049;49.468;11.200;2022-09-09T02:34:07;3.73;;;2.57;;
8007;SDS011;4049;49.468;11.200;2022-09-09T02:36:37;3.77;;;2.63;;
8007;SDS011;4049;49.468;11.200;2022-09-09T02:39:07;3.63;;;2.20;;
8007;SDS011;4049;49.468;11.200;2022-09-09T02:41:36;2.37;;;2.13;;
8007;SDS011;4049;49.468;11.200;2022-09-09T02:44:05;3.67;;;2.07;;
8007;SDS011;4049;49.468;11.200;2022-09-09T02:46:43;3.20;;;2.00;;
8007;SDS011;4049;49.468;11.200;2022-09-09T02:49:36;2.73;;;2.20;;
8007;SDS011;4049;49.468;11.200;2022-09-09T02:52:14;4.30;;;2.20;;
8007;SDS011;4049;49.468;11.200;2022-09-09T02:54:44;2.70;;;2.00;;
8007;SDS011;4049;49.468;11.200;2022-09-09T02:57:12;2.40;;;1.83;;
8007;SDS011;4049;49.468;11.200;2022-09-09T02:59:44;2.60;;;1.77;;
8007;SDS011;4049;49.468;11.200;2022-09-09T03:02:12;3.23;;;2.13;;
8007;SDS011;4049;49.468;11.200;2022-09-09T03:04:39;2.93;;;1.80;;
8007;SDS011;4049;49.468;11.200;2022-09-09T03:07:09;2.50;;;2.07;;
8007;SDS011;4049;49.468;11.200;2022-09-09T03:09:37;3.40;;;2.00;;
8007;SDS011;4049;49.468;11.200;2022-09-09T03:12:04;4.10;;;2.30;;
8007;SDS011;4049;49.468;11.200;2022-09-09T03:14:32;2.47;;;1.80;;
8007;SDS011;4049;49.468;11.200;2022-09-09T03:17:00;1.80;;;1.60;;
8007;SDS011;4049;49.468;11.200;2022-09-09T03:19:30;3.20;;;1.87;;
8007;SDS011;4049;49.468;11.200;2022-09-09T03:21:57;2.00;;;1.80;;
8007;SDS011;4049;49.468;11.200;2022-09-09T03:24:25;2.57;;;1.93;;
8007;SDS011;4049;49.468;11.200;2022-09-09T03:26:52;2.80;;;1.80;;
8007;SDS011;4049;49.468;11.200;2022-09-09T03:29:20;5.23;;;1.87;;
8007;SDS011;4049;49.468;11.200;2022-09-09T03:31:47;3.57;;;1.90;;
8007;SDS011;4049;49.468;11.200;2022-09-09T03:34:17;2.10;;;1.90;;
8007;SDS011;4049;49.468;11.200;2022-09-09T03:36:43;5.00;;;2.23;;
8007;SDS011;4049;49.468;11.200;2022-09-09T03:39:11;3.83;;;2.20;;
8007;SDS011;4049;49.468;11.200;2022-09-09T03:41:39;3.10;;;1.90;;
8007;SDS011;4049;49.468;11.200;2022-09-09T03:44:06;3.90;;;1.70;;
8007;SDS011;4049;49.468;11.200;2022-09-09T03:46:33;2.40;;;1.80;;
8007;SDS011;4049;49.468;11.200;2022-09-09T03:48:59;3.10;;;1.90;;
8007;SDS011;4049;49.468;11.200;2022-09-09T03:51:28;2.33;;;1.63;;
8007;SDS011;4049;49.468;11.200;2022-09-09T03:53:55;3.07;;;1.83;;
8007;SDS011;4049;49.468;11.200;2022-09-09T03:56:23;3.20;;;1.80;;
8007;SDS011;4049;49.468;11.200;2022-09-09T03:58:50;3.60;;;2.00;;
8007;SDS011;4049;49.468;11.200;2022-09-09T04:01:16;3.43;;;1.83;;
8007;SDS011;4049;49.468;11.200;2022-09-09T04:03:43;2.20;;;1.97;;
8007;SDS011;4049;49.468;11.200;2022-09-09T04:06:11;2.97;;;2.10;;
8007;SDS011;4049;49.468;11.200;2022-09-09T04:08:41;2.73;;;1.93;;
8007;SDS011;4049;49.468;11.200;2022-09-09T04:11:08;4.80;;;2.20;;
8007;SDS011;4049;49.468;11.200;2022-09-09T04:13:36;2.97;;;2.67;;
8007;SDS011;4049;49.468;11.200;2022-09-09T04:16:04;2.80;;;2.13;;
8007;SDS011;4049;49.468;11.200;2022-09-09T04:18:31;3.40;;;2.40;;
8007;SDS011;4049;49.468;11.200;2022-09-09T04:20:59;3.07;;;2.57;;
8007;SDS011;4049;49.468;11.200;2022-09-09T04:23:27;3.23;;;2.70;;
8007;SDS011;4049;49.468;11.200;2022-09-09T04:25:57;2.83;;;2.40;;
8007;SDS011;4049;49.468;11.200;2022-09-09T04:28:25;4.10;;;2.40;;
8007;SDS011;4049;49.468;11.200;2022-09-09T04:30:53;5.97;;;3.63;;
8007;SDS011;4049;49.468;11.200;2022-09-09T04:33:23;5.73;;;3.90;;
8007;SDS011;4049;49.468;11.200;2022-09-09T04:35:52;5.63;;;3.27;;
8007;SDS011;4049;49.468;11.200;2022-09-09T04:38:20;6.93;;;3.60;;
8007;SDS011;4049;49.468;11.200;2022-09-09T04:40:48;3.20;;;2.77;;
8007;SDS011;4049;49.468;11.200;2022-09-09T04:43:18;5.87;;;3.30;;
8007;SDS011;4049;49.468;11.200;2022-09-09T04:45:47;5.40;;;2.63;;
8007;SDS011;4049;49.468;11.200;2022-09-09T04:48:14;4.00;;;2.77;;
8007;SDS011;4049;49.468;11.200;2022-09-09T04:50:41;3.90;;;2.73;;
8007;SDS011;4049;49.468;11.200;2022-09-09T04:53:09;2.60;;;2.20;;
8007;SDS011;4049;49.468;11.200;2022-09-09T04:55:36;2.67;;;2.30;;
8007;SDS011;4049;49.468;11.200;2022-09-09T04:58:03;3.27;;;2.60;;
8007;SDS011;4049;49.468;11.200;2022-09-09T05:00:32;4.13;;;2.47;;
8007;SDS011;4049;49.468;11.200;2022-09-09T05:03:02;4.43;;;2.93;;
8007;SDS011;4049;49.468;11.200;2022-09-09T05:05:30;3.67;;;2.43;;
8007;SDS011;4049;49.468;11.200;2022-09-09T05:08:00;3.90;;;2.17;;
8007;SDS011;4049;49.468;11.200;2022-09-09T05:10:28;4.00;;;2.53;;
8007;SDS011;4049;49.468;11.200;2022-09-09T05:12:55;3.23;;;2.13;;
8007;SDS011;4049;49.468;11.200;2022-09-09T05:15:22;2.87;;;2.60;;
8007;SDS011;4049;49.468;11.200;2022-09-09T05:17:50;5.17;;;2.10;;
8007;SDS011;4049;49.468;11.200;2022-09-09T05:20:18;4.50;;;2.70;;
8007;SDS011;4049;49.468;11.200;2022-09-09T05:22:46;4.13;;;2.60;;
8007;SDS011;4049;49.468;11.200;2022-09-09T05:25:14;3.20;;;2.13;;
8007;SDS011;4049;49.468;11.200;2022-09-09T05:27:41;3.57;;;2.23;;
8007;SDS011;4049;49.468;11.200;2022-09-09T05:30:08;2.73;;;2.20;;
8007;SDS011;4049;49.468;11.200;2022-09-09T05:32:36;2.20;;;2.00;;
8007;SDS011;4049;49.468;11.200;2022-09-09T05:35:04;2.63;;;1.93;;
8007;SDS011;4049;49.468;11.200;2022-09-09T05:37:31;4.03;;;2.07;;
8007;SDS011;4049;49.468;11.200;2022-09-09T05:39:58;2.30;;;1.70;;
8007;SDS011;4049;49.468;11.200;2022-09-09T05:42:29;2.97;;;2.07;;
8007;SDS011;4049;49.468;11.200;2022-09-09T05:44:56;2.53;;;1.93;;
8007;SDS011;4049;49.468;11.200;2022-09-09T05:47:23;2.83;;;1.73;;
8007;SDS011;4049;49.468;11.200;2022-09-09T05:49:52;1.60;;;1.50;;
8007;SDS011;4049;49.468;11.200;2022-09-09T05:52:21;2.83;;;2.07;;
8007;SDS011;4049;49.468;11.200;2022-09-09T05:54:48;2.67;;;1.80;;
8007;SDS011;4049;49.468;11.200;2022-09-09T05:57:15;2.27;;;1.80;;
8007;SDS011;4049;49.468;11.200;2022-09-09T05:59:43;3.73;;;2.00;;
8007;SDS011;4049;49.468;11.200;2022-09-09T06:02:10;3.27;;;1.90;;
8007;SDS011;4049;49.468;11.200;2022-09-09T06:04:38;2.90;;;1.80;;
8007;SDS011;4049;49.468;11.200;2022-09-09T06:07:05;2.40;;;1.80;;
8007;SDS011;4049;49.468;11.200;2022-09-09T06:09:33;2.70;;;2.17;;
8007;SDS011;4049;49.468;11.200;2022-09-09T06:12:00;3.17;;;2.20;;
8007;SDS011;4049;49.468;11.200;2022-09-09T06:14:27;3.70;;;1.90;;
8007;SDS011;4049;49.468;11.200;2022-09-09T06:16:54;3.23;;;2.10;;
8007;SDS011;4049;49.468;11.200;2022-09-09T06:19:21;3.53;;;2.57;;
8007;SDS011;4049;49.468;11.200;2022-09-09T06:21:49;4.10;;;2.30;;
8007;SDS011;4049;49.468;11.200;2022-09-09T06:24:16;3.70;;;2.20;;
8007;SDS011;4049;49.468;11.200;2022-09-09T06:26:45;3.73;;;1.83;;
8007;SDS011;4049;49.468;11.200;2022-09-09T06:29:12;4.20;;;2.27;;
8007;SDS011;4049;49.468;11.200;2022-09-09T06:31:39;5.40;;;2.00;;
8007;SDS011;4049;49.468;11.200;2022-09-09T06:34:07;2.73;;;2.00;;
8007;SDS011;4049;49.468;11.200;2022-09-09T06:36:35;5.40;;;1.93;;
8007;SDS011;4049;49.468;11.200;2022-09-09T06:39:03;3.93;;;1.80;;
8007;SDS011;4049;49.468;11.200;2022-09-09T06:41:31;4.50;;;2.13;;
8007;SDS011;4049;49.468;11.200;2022-09-09T06:44:00;4.60;;;2.03;;
8007;SDS011;4049;49.468;11.200;2022-09-09T06:46:28;6.43;;;1.87;;
8007;SDS011;4049;49.468;11.200;2022-09-09T06:48:58;2.30;;;1.60;;
8007;SDS011;4049;49.468;11.200;2022-09-09T06:51:26;1.60;;;1.50;;
8007;SDS011;4049;49.468;11.200;2022-09-09T06:53:55;2.83;;;1.30;;
8007;SDS011;4049;49.468;11.200;2022-09-09T06:56:24;3.73;;;1.70;;
8007;SDS011;4049;49.468;11.200;2022-09-09T06:58:53;1.63;;;1.30;;
8007;SDS011;4049;49.468;11.200;2022-09-09T07:01:22;1.90;;;1.53;;
8007;SDS011;4049;49.468;11.200;2022-09-09T07:03:51;2.00;;;1.60;;
8007;SDS011;4049;49.468;11.200;2022-09-09T07:06:20;1.60;;;1.40;;
8007;SDS011;4049;49.468;11.200;2022-09-09T07:08:49;3.20;;;1.70;;
8007;SDS011;4049;49.468;11.200;2022-09-09T07:11:17;2.67;;;1.50;;
8007;SDS011;4049;49.468;11.200;2022-09-09T07:13:45;1.90;;;1.30;;
8007;SDS011;4049;49.468;11.200;2022-09-09T07:16:13;1.93;;;1.57;;
8007;SDS011;4049;49.468;11.200;2022-09-09T07:18:43;2.27;;;1.70;;
8007;SDS011;4049;49.468;11.200;2022-09-09T07:21:10;2.27;;;1.67;;
8007;SDS011;4049;49.468;11.200;2022-09-09T07:23:39;2.03;;;1.27;;
8007;SDS011;4049;49.468;11.200;2022-09-09T07:26:09;2.00;;;1.40;;
8007;SDS011;4049;49.468;11.200;2022-09-09T07:28:38;1.73;;;1.40;;
8007;SDS011;4049;49.468;11.200;2022-09-09T07:31:06;4.30;;;1.30;;
8007;SDS011;4049;49.468;11.200;2022-09-09T07:33:40;2.33;;;1.30;;
8007;SDS011;4049;49.468;11.200;2022-09-09T07:36:10;1.63;;;1.30;;
8007;SDS011;4049;49.468;11.200;2022-09-09T07:38:40;2.43;;;1.40;;
8007;SDS011;4049;49.468;11.200;2022-09-09T07:41:09;1.60;;;1.40;;
8007;SDS011;4049;49.468;11.200;2022-09-09T07:43:38;2.73;;;1.37;;
8007;SDS011;4049;49.468;11.200;2022-09-09T07:46:05;2.70;;;1.50;;
8007;SDS011;4049;49.468;11.200;2022-09-09T07:48:33;3.10;;;1.33;;
8007;SDS011;4049;49.468;11.200;2022-09-09T07:51:06;1.30;;;1.13;;
8007;SDS011;4049;49.468;11.200;2022-09-09T07:53:35;3.77;;;1.63;;
8007;SDS011;4049;49.468;11.200;2022-09-09T07:56:04;3.53;;;1.47;;
8007;SDS011;4049;49.468;11.200;2022-09-09T07:58:32;1.47;;;1.27;;
8007;SDS011;4049;49.468;11.200;2022-09-09T08:00:59;2.47;;;1.33;;
8007;SDS011;4049;49.468;11.200;2022-09-09T08:03:26;2.63;;;1.60;;
8007;SDS011;4049;49.468;11.200;2022-09-09T08:05:53;3.33;;;1.30;;
8007;SDS011;4049;49.468;11.200;2022-09-09T08:08:27;2.27;;;1.50;;
8007;SDS011;4049;49.468;11.200;2022-09-09T08:11:00;2.70;;;1.40;;
8007;SDS011;4049;49.468;11.200;2022-09-09T08:13:29;1.40;;;1.20;;
8007;SDS011;4049;49.468;11.200;2022-09-09T08:16:03;1.90;;;1.40;;
8007;SDS011;4049;49.468;11.200;2022-09-09T08:18:31;3.10;;;1.23;;
8007;SDS011;4049;49.468;11.200;2022-09-09T08:20:58;6.63;;;1.30;;
8007;SDS011;4049;49.468;11.200;2022-09-09T08:23:33;3.80;;;1.30;;
8007;SDS011;4049;49.468;11.200;2022-09-09T08:26:03;2.23;;;1.30;;
8007;SDS011;4049;49.468;11.200;2022-09-09T08:28:30;2.10;;;1.20;;
8007;SDS011;4049;49.468;11.200;2022-09-09T08:31:04;2.67;;;1.30;;
8007;SDS011;4049;49.468;11.200;2022-09-09T08:33:35;1.70;;;1.20;;
8007;SDS011;4049;49.468;11.200;2022-09-09T08:36:04;2.30;;;0.80;;
8007;SDS011;4049;49.468;11.200;2022-09-09T08:38:35;1.50;;;1.40;;
8007;SDS011;4049;49.468;11.200;2022-09-09T08:41:07;1.73;;;1.20;;
8007;SDS011;4049;49.468;11.200;2022-09-09T08:43:48;2.50;;;1.50;;
8007;SDS011;4049;49.468;11.200;2022-09-09T08:46:19;4.10;;;1.10;;
8007;SDS011;4049;49.468;11.200;2022-09-09T08:48:52;4.27;;;1.47;;
8007;SDS011;4049;49.468;11.200;2022-09-09T08:51:23;3.27;;;1.43;;
8007;SDS011;4049;49.468;11.200;2022-09-09T08:53:54;2.37;;;1.13;;
8007;SDS011;4049;49.468;11.200;2022-09-09T08:56:25;1.23;;;1.10;;
8007;SDS011;4049;49.468;11.200;2022-09-09T08:58:54;4.90;;;1.47;;
8007;SDS011;4049;49.468;11.200;2022-09-09T09:01:30;3.90;;;1.50;;
8007;SDS011;4049;49.468;11.200;2022-09-09T09:04:11;2.17;;;1.10;;
8007;SDS011;4049;49.468;11.200;2022-09-09T09:06:54;6.10;;;1.20;;
8007;SDS011;4049;49.468;11.200;2022-09-09T09:09:40;2.23;;;1.30;;
8007;SDS011;4049;49.468;11.200;2022-09-09T09:12:15;1.83;;;1.00;;
8007;SDS011;4049;49.468;11.200;2022-09-09T09:14:44;1.50;;;1.03;;
8007;SDS011;4049;49.468;11.200;2022-09-09T09:17:14;1.67;;;1.20;;
8007;SDS011;4049;49.468;11.200;2022-09-09T09:19:45;3.63;;;1.27;;
8007;SDS011;4049;49.468;11.200;2022-09-09T09:22:15;1.23;;;0.97;;
8007;SDS011;4049;49.468;11.200;2022-09-09T09:24:48;4.53;;;1.37;;
8007;SDS011;4049;49.468;11.200;2022-09-09T09:27:19;0.80;;;0.80;;
8007;SDS011;4049;49.468;11.200;2022-09-09T09:29:54;2.03;;;1.10;;
8007;SDS011;4049;49.468;11.200;2022-09-09T09:32:23;1.33;;;1.00;;
8007;SDS011;4049;49.468;11.200;2022-09-09T09:34:53;1.57;;;0.97;;
8007;SDS011;4049;49.468;11.200;2022-09-09T09:37:26;1.67;;;0.93;;
8007;SDS011;4049;49.468;11.200;2022-09-09T09:40:06;2.73;;;1.00;;
8007;SDS011;4049;49.468;11.200;2022-09-09T09:42:34;1.83;;;1.00;;
8007;SDS011;4049;49.468;11.200;2022-09-09T09:45:07;3.63;;;1.20;;
8007;SDS011;4049;49.468;11.200;2022-09-09T09:47:35;1.97;;;0.90;;
8007;SDS011;4049;49.468;11.200;2022-09-09T09:50:02;2.93;;;1.00;;
8007;SDS011;4049;49.468;11.200;2022-09-09T09:52:30;2.93;;;1.00;;
8007;SDS011;4049;49.468;11.200;2022-09-09T09:55:04;2.77;;;1.00;;
8007;SDS011;4049;49.468;11.200;2022-09-09T09:57:40;0.60;;;0.60;;
8007;SDS011;4049;49.468;11.200;2022-09-09T10:00:12;0.67;;;0.67;;
8007;SDS011;4049;49.468;11.200;2022-09-09T10:02:42;2.00;;;0.80;;
8007;SDS011;4049;49.468;11.200;2022-09-09T10:05:13;1.53;;;0.80;;
8007;SDS011;4049;49.468;11.200;2022-09-09T10:07:42;1.07;;;0.97;;
8007;SDS011;4049;49.468;11.200;2022-09-09T10:10:13;1.30;;;0.83;;
8007;SDS011;4049;49.468;11.200;2022-09-09T10:12:50;1.57;;;0.87;;
8007;SDS011;4049;49.468;11.200;2022-09-09T10:15:28;4.47;;;1.00;;
8007;SDS011;4049;49.468;11.200;2022-09-09T10:18:04;1.80;;;0.93;;
8007;SDS011;4049;49.468;11.200;2022-09-09T10:20:46;3.07;;;1.20;;
8007;SDS011;4049;49.468;11.200;2022-09-09T10:23:27;1.43;;;0.80;;
8007;SDS011;4049;49.468;11.200;2022-09-09T10:26:10;1.13;;;0.80;;
8007;SDS011;4049;49.468;11.200;2022-09-09T10:28:53;2.50;;;0.93;;
8007;SDS011;4049;49.468;11.200;2022-09-09T10:31:31;0.60;;;0.60;;
8007;SDS011;4049;49.468;11.200;2022-09-09T10:34:06;3.03;;;0.90;;
8007;SDS011;4049;49.468;11.200;2022-09-09T10:36:44;0.93;;;0.87;;
8007;SDS011;4049;49.468;11.200;2022-09-09T10:39:18;1.02;;;0.85;;
8007;SDS011;4049;49.468;11.200;2022-09-09T10:41:58;1.98;;;1.08;;
8007;SDS011;4049;49.468;11.200;2022-09-09T10:44:36;1.40;;;0.80;;
8007;SDS011;4049;49.468;11.200;2022-09-09T10:47:37;3.20;;;1.08;;
8007;SDS011;4049;49.468;11.200;2022-09-09T10:50:23;2.67;;;1.15;;
8007;SDS011;4049;49.468;11.200;2022-09-09T10:53:01;0.98;;;0.75;;
8007;SDS011;4049;49.468;11.200;2022-09-09T10:55:35;0.85;;;0.82;;
8007;SDS011;4049;49.468;11.200;2022-09-09T10:58:09;1.15;;;0.90;;
8007;SDS011;4049;49.468;11.200;2022-09-09T11:00:40;1.13;;;0.90;;
8007;SDS011;4049;49.468;11.200;2022-09-09T11:03:13;1.45;;;0.90;;
8007;SDS011;4049;49.468;11.200;2022-09-09T11:05:47;1.90;;;0.80;;
8007;SDS011;4049;49.468;11.200;2022-09-09T11:08:18;1.42;;;0.82;;
8007;SDS011;4049;49.468;11.200;2022-09-09T11:10:48;1.38;;;0.82;;
8007;SDS011;4049;49.468;11.200;2022-09-09T11:13:23;1.70;;;0.80;;
8007;SDS011;4049;49.468;11.200;2022-09-09T11:15:57;2.83;;;1.20;;
8007;SDS011;4049;49.468;11.200;2022-09-09T11:18:28;0.93;;;0.63;;
8007;SDS011;4049;49.468;11.200;2022-09-09T11:20:59;2.30;;;1.23;;
8007;SDS011;4049;49.468;11.200;2022-09-09T11:23:30;1.70;;;0.80;;
8007;SDS011;4049;49.468;11.200;2022-09-09T11:26:06;0.90;;;0.80;;
8007;SDS011;4049;49.468;11.200;2022-09-09T11:28:43;1.90;;;0.90;;
8007;SDS011;4049;49.468;11.200;2022-09-09T11:31:29;1.73;;;0.75;;
8007;SDS011;4049;49.468;11.200;2022-09-09T11:37:17;0.70;;;0.68;;
8007;SDS011;4049;49.468;11.200;2022-09-09T11:42:45;1.02;;;0.70;;
8007;SDS011;4049;49.468;11.200;2022-09-09T11:45:23;1.70;;;0.70;;
8007;SDS011;4049;49.468;11.200;2022-09-09T11:47:54;1.08;;;0.75;;
8007;SDS011;4049;49.468;11.200;2022-09-09T11:50:27;1.15;;;0.80;;
8007;SDS011;4049;49.468;11.200;2022-09-09T11:53:15;1.73;;;0.93;;
8007;SDS011;4049;49.468;11.200;2022-09-09T11:56:02;1.00;;;0.80;;
8007;SDS011;4049;49.468;11.200;2022-09-09T11:58:43;3.20;;;1.20;;
8007;SDS011;4049;49.468;11.200;2022-09-09T12:01:28;0.98;;;0.75;;
8007;SDS011;4049;49.468;11.200;2022-09-09T12:06:54;2.17;;;0.80;;
8007;SDS011;4049;49.468;11.200;2022-09-09T12:09:29;2.22;;;1.08;;
8007;SDS011;4049;49.468;11.200;2022-09-09T12:12:25;1.92;;;0.80;;
8007;SDS011;4049;49.468;11.200;2022-09-09T12:14:56;1.58;;;0.90;;
8007;SDS011;4049;49.468;11.200;2022-09-09T12:17:28;1.67;;;0.80;;
8007;SDS011;4049;49.468;11.200;2022-09-09T12:20:03;1.65;;;0.90;;
8007;SDS011;4049;49.468;11.200;2022-09-09T12:22:39;0.73;;;0.68;;
8007;SDS011;4049;49.468;11.200;2022-09-09T12:25:21;1.63;;;0.90;;
8007;SDS011;4049;49.468;11.200;2022-09-09T12:27:58;2.08;;;0.80;;
8007;SDS011;4049;49.468;11.200;2022-09-09T12:30:31;2.85;;;0.90;;
8007;SDS011;4049;49.468;11.200;2022-09-09T12:33:08;1.10;;;0.80;;
8007;SDS011;4049;49.468;11.200;2022-09-09T12:35:37;0.55;;;0.52;;
8007;SDS011;4049;49.468;11.200;2022-09-09T12:38:09;1.73;;;0.70;;
8007;SDS011;4049;49.468;11.200;2022-09-09T12:40:41;1.70;;;0.90;;
8007;SDS011;4049;49.468;11.200;2022-09-09T12:43:18;0.95;;;0.60;;
8007;SDS011;4049;49.468;11.200;2022-09-09T12:45:47;1.45;;;0.75;;
8007;SDS011;4049;49.468;11.200;2022-09-09T12:48:24;2.58;;;0.70;;
8007;SDS011;4049;49.468;11.200;2022-09-09T12:50:57;2.38;;;0.80;;
8007;SDS011;4049;49.468;11.200;2022-09-09T12:53:26;1.13;;;0.70;;
8007;SDS011;4049;49.468;11.200;2022-09-09T12:55:56;3.88;;;1.20;;
8007;SDS011;4049;49.468;11.200;2022-09-09T12:58:24;0.63;;;0.60;;
8007;SDS011;4049;49.468;11.200;2022-09-09T13:00:54;1.27;;;0.90;;
8007;SDS011;4049;49.468;11.200;2022-09-09T13:03:23;0.90;;;0.80;;
8007;SDS011;4049;49.468;11.200;2022-09-09T13:05:51;1.35;;;0.77;;
8007;SDS011;4049;49.468;11.200;2022-09-09T13:08:19;0.85;;;0.60;;
8007;SDS011;4049;49.468;11.200;2022-09-09T13:10:47;2.45;;;0.68;;
8007;SDS011;4049;49.468;11.200;2022-09-09T13:13:20;2.60;;;0.80;;
8007;SDS011;4049;49.468;11.200;2022-09-09T13:15:49;1.23;;;0.70;;
8007;SDS011;4049;49.468;11.200;2022-09-09T13:18:20;1.10;;;0.80;;
8007;SDS011;4049;49.468;11.200;2022-09-09T13:20:50;1.92;;;0.63;;
8007;SDS011;4049;49.468;11.200;2022-09-09T13:23:18;2.33;;;0.70;;
8007;SDS011;4049;49.468;11.200;2022-09-09T13:25:53;4.45;;;0.90;;
8007;SDS011;4049;49.468;11.200;2022-09-09T13:28:22;1.67;;;0.70;;
8007;SDS011;4049;49.468;11.200;2022-09-09T13:30:57;0.80;;;0.80;;
8007;SDS011;4049;49.468;11.200;2022-09-09T13:33:29;1.58;;;0.90;;
8007;SDS011;4049;49.468;11.200;2022-09-09T13:36:04;1.00;;;0.70;;
8007;SDS011;4049;49.468;11.200;2022-09-09T13:38:35;1.10;;;0.70;;
8007;SDS011;4049;49.468;11.200;2022-09-09T13:41:03;1.20;;;0.63;;
8007;SDS011;4049;49.468;11.200;2022-09-09T13:43:34;3.92;;;0.90;;
8007;SDS011;4049;49.468;11.200;2022-09-09T13:46:03;2.22;;;0.80;;
8007;SDS011;4049;49.468;11.200;2022-09-09T13:48:32;1.05;;;0.70;;
8007;SDS011;4049;49.468;11.200;2022-09-09T13:51:00;1.90;;;0.73;;
8007;SDS011;4049;49.468;11.200;2022-09-09T13:53:29;2.33;;;0.80;;
8007;SDS011;4049;49.468;11.200;2022-09-09T13:55:56;1.65;;;0.52;;
8007;SDS011;4049;49.468;11.200;2022-09-09T13:58:24;1.27;;;0.47;;
8007;SDS011;4049;49.468;11.200;2022-09-09T14:00:51;0.70;;;0.50;;
8007;SDS011;4049;49.468;11.200;2022-09-09T14:03:19;0.75;;;0.75;;
8007;SDS011;4049;49.468;11.200;2022-09-09T14:05:46;0.82;;;0.65;;
8007;SDS011;4049;49.468;11.200;2022-09-09T14:08:23;1.33;;;0.73;;
8007;SDS011;4049;49.468;11.200;2022-09-09T14:10:53;1.10;;;0.60;;
8007;SDS011;4049;49.468;11.200;2022-09-09T14:13:21;1.20;;;0.82;;
8007;SDS011;4049;49.468;11.200;2022-09-09T14:15:48;1.13;;;0.65;;
8007;SDS011;4049;49.468;11.200;2022-09-09T14:18:15;1.98;;;0.80;;
8007;SDS011;4049;49.468;11.200;2022-09-09T14:20:43;1.13;;;0.73;;
8007;SDS011;4049;49.468;11.200;2022-09-09T14:23:11;3.00;;;1.00;;
8007;SDS011;4049;49.468;11.200;2022-09-09T14:25:41;4.00;;;1.08;;
8007;SDS011;4049;49.468;11.200;2022-09-09T14:28:11;0.95;;;0.88;;
8007;SDS011;4049;49.468;11.200;2022-09-09T14:30:40;2.58;;;0.80;;
8007;SDS011;4049;49.468;11.200;2022-09-09T14:33:08;2.80;;;0.90;;
8007;SDS011;4049;49.468;11.200;2022-09-09T14:35:40;1.90;;;0.97;;
8007;SDS011;4049;49.468;11.200;2022-09-09T14:38:07;2.83;;;0.80;;
8007;SDS011;4049;49.468;11.200;2022-09-09T14:40:35;1.77;;;0.70;;
8007;SDS011;4049;49.468;11.200;2022-09-09T14:43:03;0.80;;;0.70;;
8007;SDS011;4049;49.468;11.200;2022-09-09T14:45:32;1.13;;;1.00;;
8007;SDS011;4049;49.468;11.200;2022-09-09T14:48:03;2.40;;;0.90;;
8007;SDS011;4049;49.468;11.200;2022-09-09T14:50:30;1.60;;;1.00;;
8007;SDS011;4049;49.468;11.200;2022-09-09T14:52:56;0.53;;;0.50;;
8007;SDS011;4049;49.468;11.200;2022-09-09T14:55:23;1.60;;;1.00;;
8007;SDS011;4049;49.468;11.200;2022-09-09T14:57:53;1.20;;;0.73;;
8007;SDS011;4049;49.468;11.200;2022-09-09T15:00:20;1.37;;;0.60;;
8007;SDS011;4049;49.468;11.200;2022-09-09T15:02:48;1.40;;;1.00;;
8007;SDS011;4049;49.468;11.200;2022-09-09T15:05:18;1.90;;;0.80;;
8007;SDS011;4049;49.468;11.200;2022-09-09T15:07:45;3.60;;;1.30;;
8007;SDS011;4049;49.468;11.200;2022-09-09T15:10:13;1.63;;;0.80;;
8007;SDS011;4049;49.468;11.200;2022-09-09T15:12:42;3.13;;;1.10;;
8007;SDS011;4049;49.468;11.200;2022-09-09T15:15:09;1.80;;;0.77;;
8007;SDS011;4049;49.468;11.200;2022-09-09T15:17:37;2.20;;;0.70;;
8007;SDS011;4049;49.468;11.200;2022-09-09T15:20:06;1.30;;;0.90;;
8007;SDS011;4049;49.468;11.200;2022-09-09T15:22:34;1.20;;;1.10;;
8007;SDS011;4049;49.468;11.200;2022-09-09T15:25:02;1.27;;;0.80;;
8007;SDS011;4049;49.468;11.200;2022-09-09T15:27:30;2.33;;;1.20;;
8007;SDS011;4049;49.468;11.200;2022-09-09T15:29:59;1.23;;;0.80;;
8007;SDS011;4049;49.468;11.200;2022-09-09T15:32:26;1.07;;;0.97;;
8007;SDS011;4049;49.468;11.200;2022-09-09T15:34:53;2.53;;;1.30;;